sensor_id;sensor_type;location;lat;lon;timestamp;pressure;altitude;pressure_sealevel;temperature;humidity
38616;BME280;24370;51.986;4.666;2022-10-17T00:00:31;101596.09;;;23.66;49.14
38616;BME280;24370;51.986;4.666;2022-10-17T00:02:57;101591.75;;;24.14;48.15
38616;BME280;24370;51.986;4.666;2022-10-17T00:05:23;101595.84;;;24.04;48.64
38616;BME280;24370;51.986;4.666;2022-10-17T00:07:49;101593.63;;;24.12;47.95
38616;BME280;24370;51.986;4.666;2022-10-17T00:10:15;101592.81;;;23.43;49.97
38616;BME280;24370;51.986;4.666;2022-10-17T00:12:40;101592.72;;;23.96;48.48
38616;BME280;24370;51.986;4.666;2022-10-17T00:15:06;101585.84;;;23.92;48.53
38616;BME280;24370;51.986;4.666;2022-10-17T00:17:32;101586.91;;;23.87;48.66
38616;BME280;24370;51.986;4.666;2022-10-17T00:19:59;101579.56;;;23.75;48.73
38616;BME280;24370;51.986;4.666;2022-10-17T00:22:25;101584.50;;;24.32;47.33
38616;BME280;24370;51.986;4.666;2022-10-17T00:24:51;101579.34;;;23.80;48.78
38616;BME280;24370;51.986;4.666;2022-10-17T00:27:16;101579.25;;;23.81;49.14
38616;BME280;24370;51.986;4.666;2022-10-17T00:29:41;101586.16;;;23.85;48.94
38616;BME280;24370;51.986;4.666;2022-10-17T00:32:07;101572.44;;;24.41;47.58
38616;BME280;24370;51.986;4.666;2022-10-17T00:34:32;101570.81;;;24.22;48.04
38616;BME280;24370;51.986;4.666;2022-10-17T00:36:58;101577.69;;;23.77;49.47
38616;BME280;24370;51.986;4.666;2022-10-17T00:39:23;101569.34;;;23.83;48.86
38616;BME280;24370;51.986;4.666;2022-10-17T00:41:49;101569.63;;;23.28;49.80
38616;BME280;24370;51.986;4.666;2022-10-17T00:47:05;101561.91;;;23.57;50.13
38616;BME280;24370;51.986;4.666;2022-10-17T00:49:34;101567.44;;;24.35;47.60
38616;BME280;24370;51.986;4.666;2022-10-17T00:52:05;101573.91;;;23.99;48.55
38616;BME280;24370;51.986;4.666;2022-10-17T00:54:35;101575.28;;;24.06;48.63
38616;BME280;24370;51.986;4.666;2022-10-17T00:57:02;101570.09;;;24.67;47.00
38616;BME280;24370;51.986;4.666;2022-10-17T00:59:29;101568.47;;;24.48;47.36
38616;BME280;24370;51.986;4.666;2022-10-17T01:02:03;101574.72;;;24.79;46.49
38616;BME280;24370;51.986;4.666;2022-10-17T01:04:29;101581.13;;;24.61;47.23
38616;BME280;24370;51.986;4.666;2022-10-17T01:06:55;101576.53;;;23.32;49.45
38616;BME280;24370;51.986;4.666;2022-10-17T01:09:21;101571.94;;;23.51;49.66
38616;BME280;24370;51.986;4.666;2022-10-17T01:12:03;101564.78;;;23.52;49.90
38616;BME280;24370;51.986;4.666;2022-10-17T01:18:12;101549.88;;;24.31;47.85
38616;BME280;24370;51.986;4.666;2022-10-17T01:21:04;101554.84;;;24.05;48.42
38616;BME280;24370;51.986;4.666;2022-10-17T01:32:18;101530.75;;;23.91;48.75
38616;BME280;24370;51.986;4.666;2022-10-17T01:34:54;101524.78;;;23.52;50.26
38616;BME280;24370;51.986;4.666;2022-10-17T01:37:31;101528.69;;;23.11;50.78
38616;BME280;24370;51.986;4.666;2022-10-17T01:40:03;101526.94;;;23.10;51.46
38616;BME280;24370;51.986;4.666;2022-10-17T01:42:41;101519.06;;;22.18;54.20
38616;BME280;24370;51.986;4.666;2022-10-17T01:45:28;101527.28;;;24.20;48.68
38616;BME280;24370;51.986;4.666;2022-10-17T01:47:58;101531.88;;;23.69;49.65
38616;BME280;24370;51.986;4.666;2022-10-17T01:50:30;101523.38;;;23.45;50.63
38616;BME280;24370;51.986;4.666;2022-10-17T01:53:05;101517.88;;;23.48;49.82
38616;BME280;24370;51.986;4.666;2022-10-17T01:55:38;101511.59;;;23.82;49.62
38616;BME280;24370;51.986;4.666;2022-10-17T01:58:06;101520.91;;;23.24;51.11
38616;BME280;24370;51.986;4.666;2022-10-17T02:00:34;101513.28;;;23.34;51.05
38616;BME280;24370;51.986;4.666;2022-10-17T02:03:08;101512.28;;;23.19;52.14
38616;BME280;24370;51.986;4.666;2022-10-17T02:05:37;101516.59;;;23.21;50.91
38616;BME280;24370;51.986;4.666;2022-10-17T02:08:03;101511.28;;;22.86;52.20
38616;BME280;24370;51.986;4.666;2022-10-17T02:10:37;101504.91;;;23.91;49.71
38616;BME280;24370;51.986;4.666;2022-10-17T02:18:46;101486.97;;;23.93;50.10
38616;BME280;24370;51.986;4.666;2022-10-17T02:21:20;101493.50;;;23.71;51.13
38616;BME280;24370;51.986;4.666;2022-10-17T02:23:58;101497.13;;;23.86;50.93
38616;BME280;24370;51.986;4.666;2022-10-17T02:26:32;101494.72;;;24.30;49.79
38616;BME280;24370;51.986;4.666;2022-10-17T02:29:09;101482.16;;;24.32;49.82
38616;BME280;24370;51.986;4.666;2022-10-17T02:31:46;101481.44;;;23.80;51.38
38616;BME280;24370;51.986;4.666;2022-10-17T02:34:23;101487.84;;;23.44;52.87
38616;BME280;24370;51.986;4.666;2022-10-17T02:36:53;101490.78;;;24.05;51.03
38616;BME280;24370;51.986;4.666;2022-10-17T02:39:21;101496.19;;;23.38;52.91
38616;BME280;24370;51.986;4.666;2022-10-17T02:41:49;101497.94;;;23.88;52.48
38616;BME280;24370;51.986;4.666;2022-10-17T02:44:16;101502.81;;;24.12;49.93
38616;BME280;24370;51.986;4.666;2022-10-17T02:46:44;101497.19;;;23.35;53.71
38616;BME280;24370;51.986;4.666;2022-10-17T02:49:20;101500.25;;;24.11;51.41
38616;BME280;24370;51.986;4.666;2022-10-17T02:51:54;101495.22;;;24.52;49.97
38616;BME280;24370;51.986;4.666;2022-10-17T02:57:38;101502.13;;;24.25;50.82
38616;BME280;24370;51.986;4.666;2022-10-17T03:00:08;101504.97;;;24.05;51.90
38616;BME280;24370;51.986;4.666;2022-10-17T03:02:48;101499.00;;;23.84;51.71
38616;BME280;24370;51.986;4.666;2022-10-17T03:05:20;101510.22;;;24.39;49.95
38616;BME280;24370;51.986;4.666;2022-10-17T03:07:46;101516.44;;;24.24;50.09
38616;BME280;24370;51.986;4.666;2022-10-17T03:10:11;101521.00;;;24.21;51.05
38616;BME280;24370;51.986;4.666;2022-10-17T03:12:37;101514.03;;;24.19;51.32
38616;BME280;24370;51.986;4.666;2022-10-17T03:15:03;101503.50;;;23.84;51.74
38616;BME280;24370;51.986;4.666;2022-10-17T03:17:29;101508.03;;;24.62;50.90
38616;BME280;24370;51.986;4.666;2022-10-17T03:19:54;101515.03;;;24.64;50.00
38616;BME280;24370;51.986;4.666;2022-10-17T03:22:19;101504.63;;;24.74;49.23
38616;BME280;24370;51.986;4.666;2022-10-17T03:24:45;101515.94;;;24.01;51.44
38616;BME280;24370;51.986;4.666;2022-10-17T03:27:10;101520.91;;;24.39;50.52
38616;BME280;24370;51.986;4.666;2022-10-17T03:29:36;101527.59;;;24.46;51.48
38616;BME280;24370;51.986;4.666;2022-10-17T03:32:01;101528.56;;;24.45;51.80
38616;BME280;24370;51.986;4.666;2022-10-17T03:34:27;101516.06;;;24.62;51.01
38616;BME280;24370;51.986;4.666;2022-10-17T03:36:52;101514.59;;;24.86;50.11
38616;BME280;24370;51.986;4.666;2022-10-17T03:39:18;101511.00;;;24.09;52.08
38616;BME280;24370;51.986;4.666;2022-10-17T03:41:43;101505.06;;;24.36;52.09
38616;BME280;24370;51.986;4.666;2022-10-17T03:44:08;101509.13;;;24.73;51.45
38616;BME280;24370;51.986;4.666;2022-10-17T03:46:34;101505.19;;;24.49;50.97
38616;BME280;24370;51.986;4.666;2022-10-17T03:48:59;101510.59;;;24.79;50.49
38616;BME280;24370;51.986;4.666;2022-10-17T03:51:24;101508.59;;;24.83;50.48
38616;BME280;24370;51.986;4.666;2022-10-17T03:53:50;101508.69;;;24.19;52.60
38616;BME280;24370;51.986;4.666;2022-10-17T03:56:17;101509.84;;;24.61;51.56
38616;BME280;24370;51.986;4.666;2022-10-17T03:58:43;101518.66;;;25.08;49.86
38616;BME280;24370;51.986;4.666;2022-10-17T04:01:10;101529.47;;;24.76;50.52
38616;BME280;24370;51.986;4.666;2022-10-17T04:03:36;101517.69;;;25.39;48.82
38616;BME280;24370;51.986;4.666;2022-10-17T04:06:03;101531.03;;;23.84;52.97
38616;BME280;24370;51.986;4.666;2022-10-17T04:08:29;101519.06;;;24.55;51.73
38616;BME280;24370;51.986;4.666;2022-10-17T04:10:59;101522.59;;;24.72;50.91
38616;BME280;24370;51.986;4.666;2022-10-17T04:13:25;101536.94;;;24.39;52.55
38616;BME280;24370;51.986;4.666;2022-10-17T04:15:58;101541.19;;;25.04;50.78
38616;BME280;24370;51.986;4.666;2022-10-17T04:18:24;101524.88;;;24.32;52.96
38616;BME280;24370;51.986;4.666;2022-10-17T04:20:49;101529.25;;;24.95;50.96
38616;BME280;24370;51.986;4.666;2022-10-17T04:23:15;101531.22;;;24.77;51.92
38616;BME280;24370;51.986;4.666;2022-10-17T04:25:40;101528.41;;;25.23;50.38
38616;BME280;24370;51.986;4.666;2022-10-17T04:28:06;101537.78;;;24.55;51.96
38616;BME280;24370;51.986;4.666;2022-10-17T04:30:31;101544.59;;;24.92;51.07
38616;BME280;24370;51.986;4.666;2022-10-17T04:32:56;101546.72;;;24.54;52.72
38616;BME280;24370;51.986;4.666;2022-10-17T04:35:22;101540.91;;;24.64;51.66
38616;BME280;24370;51.986;4.666;2022-10-17T04:37:47;101545.59;;;25.05;51.56
38616;BME280;24370;51.986;4.666;2022-10-17T04:40:12;101559.47;;;25.26;50.54
38616;BME280;24370;51.986;4.666;2022-10-17T04:42:38;101554.97;;;25.12;49.83
38616;BME280;24370;51.986;4.666;2022-10-17T04:45:04;101556.22;;;25.21;49.64
38616;BME280;24370;51.986;4.666;2022-10-17T04:47:29;101559.09;;;24.87;50.92
38616;BME280;24370;51.986;4.666;2022-10-17T04:49:55;101549.31;;;25.62;48.46
38616;BME280;24370;51.986;4.666;2022-10-17T04:52:20;101557.09;;;25.21;49.43
38616;BME280;24370;51.986;4.666;2022-10-17T04:54:45;101551.31;;;25.58;48.58
38616;BME280;24370;51.986;4.666;2022-10-17T04:57:11;101555.09;;;24.95;51.12
38616;BME280;24370;51.986;4.666;2022-10-17T04:59:36;101556.72;;;25.28;49.74
38616;BME280;24370;51.986;4.666;2022-10-17T05:02:02;101568.06;;;24.86;50.46
38616;BME280;24370;51.986;4.666;2022-10-17T05:04:27;101563.88;;;25.27;50.06
38616;BME280;24370;51.986;4.666;2022-10-17T05:06:53;101565.00;;;25.39;49.40
38616;BME280;24370;51.986;4.666;2022-10-17T05:09:18;101551.50;;;24.96;50.69
38616;BME280;24370;51.986;4.666;2022-10-17T05:11:43;101555.78;;;26.01;47.92
38616;BME280;24370;51.986;4.666;2022-10-17T05:14:09;101577.81;;;24.87;51.38
38616;BME280;24370;51.986;4.666;2022-10-17T05:16:34;101576.66;;;25.38;49.62
38616;BME280;24370;51.986;4.666;2022-10-17T05:19:00;101577.69;;;25.50;49.22
38616;BME280;24370;51.986;4.666;2022-10-17T05:21:27;101587.47;;;25.20;50.57
38616;BME280;24370;51.986;4.666;2022-10-17T05:23:53;101579.91;;;25.57;49.15
38616;BME280;24370;51.986;4.666;2022-10-17T05:26:19;101564.09;;;25.96;48.06
38616;BME280;24370;51.986;4.666;2022-10-17T05:28:45;101573.81;;;25.84;48.46
38616;BME280;24370;51.986;4.666;2022-10-17T05:31:11;101564.16;;;26.38;46.82
38616;BME280;24370;51.986;4.666;2022-10-17T05:33:37;101556.16;;;26.23;46.68
38616;BME280;24370;51.986;4.666;2022-10-17T05:36:03;101567.38;;;25.72;48.06
38616;BME280;24370;51.986;4.666;2022-10-17T05:38:29;101558.88;;;25.80;48.06
38616;BME280;24370;51.986;4.666;2022-10-17T05:41:02;101563.19;;;25.23;49.72
38616;BME280;24370;51.986;4.666;2022-10-17T05:43:29;101570.13;;;24.97;50.18
38616;BME280;24370;51.986;4.666;2022-10-17T05:45:54;101570.06;;;25.13;50.00
38616;BME280;24370;51.986;4.666;2022-10-17T05:48:20;101587.94;;;25.43;49.16
38616;BME280;24370;51.986;4.666;2022-10-17T05:50:46;101573.41;;;25.47;48.94
38616;BME280;24370;51.986;4.666;2022-10-17T05:53:13;101575.31;;;25.45;48.71
38616;BME280;24370;51.986;4.666;2022-10-17T05:55:38;101575.53;;;24.81;51.23
38616;BME280;24370;51.986;4.666;2022-10-17T05:58:03;101578.09;;;25.28;49.98
38616;BME280;24370;51.986;4.666;2022-10-17T06:00:29;101570.16;;;25.42;49.40
38616;BME280;24370;51.986;4.666;2022-10-17T06:02:54;101568.81;;;25.49;48.84
38616;BME280;24370;51.986;4.666;2022-10-17T06:05:20;101572.50;;;24.71;50.51
38616;BME280;24370;51.986;4.666;2022-10-17T06:07:46;101563.53;;;25.91;48.13
38616;BME280;24370;51.986;4.666;2022-10-17T06:10:13;101562.50;;;25.50;49.16
38616;BME280;24370;51.986;4.666;2022-10-17T06:12:41;101579.53;;;25.78;48.31
38616;BME280;24370;51.986;4.666;2022-10-17T06:15:07;101581.34;;;26.06;47.54
38616;BME280;24370;51.986;4.666;2022-10-17T06:17:32;101578.78;;;26.05;47.54
38616;BME280;24370;51.986;4.666;2022-10-17T06:19:58;101595.38;;;26.24;46.89
38616;BME280;24370;51.986;4.666;2022-10-17T06:22:23;101604.94;;;25.56;48.81
38616;BME280;24370;51.986;4.666;2022-10-17T06:24:49;101614.72;;;25.72;48.79
38616;BME280;24370;51.986;4.666;2022-10-17T06:27:14;101602.38;;;25.98;47.42
38616;BME280;24370;51.986;4.666;2022-10-17T06:29:39;101610.13;;;25.88;47.94
38616;BME280;24370;51.986;4.666;2022-10-17T06:32:05;101620.66;;;25.91;48.15
38616;BME280;24370;51.986;4.666;2022-10-17T06:34:31;101620.84;;;25.60;48.89
38616;BME280;24370;51.986;4.666;2022-10-17T06:36:56;101617.50;;;26.14;47.38
38616;BME280;24370;51.986;4.666;2022-10-17T06:39:22;101620.66;;;26.20;46.61
38616;BME280;24370;51.986;4.666;2022-10-17T06:41:49;101629.44;;;26.22;46.48
38616;BME280;24370;51.986;4.666;2022-10-17T06:44:14;101630.78;;;25.72;48.05
38616;BME280;24370;51.986;4.666;2022-10-17T06:46:40;101620.38;;;26.11;47.24
38616;BME280;24370;51.986;4.666;2022-10-17T06:49:06;101633.44;;;25.86;48.72
38616;BME280;24370;51.986;4.666;2022-10-17T06:51:34;101632.47;;;25.73;48.40
38616;BME280;24370;51.986;4.666;2022-10-17T06:53:59;101640.34;;;25.90;48.45
38616;BME280;24370;51.986;4.666;2022-10-17T06:56:25;101656.41;;;25.90;47.98
38616;BME280;24370;51.986;4.666;2022-10-17T06:58:50;101644.81;;;26.33;47.51
38616;BME280;24370;51.986;4.666;2022-10-17T07:01:17;101647.25;;;26.23;47.73
38616;BME280;24370;51.986;4.666;2022-10-17T07:03:42;101646.50;;;26.49;47.28
38616;BME280;24370;51.986;4.666;2022-10-17T07:06:08;101652.06;;;25.59;50.09
38616;BME280;24370;51.986;4.666;2022-10-17T07:08:36;101664.50;;;25.30;50.87
38616;BME280;24370;51.986;4.666;2022-10-17T07:11:16;101695.56;;;25.63;50.56
38616;BME280;24370;51.986;4.666;2022-10-17T07:13:42;101698.97;;;25.04;52.25
38616;BME280;24370;51.986;4.666;2022-10-17T07:16:08;101691.63;;;25.54;51.41
38616;BME280;24370;51.986;4.666;2022-10-17T07:18:34;101682.03;;;25.80;50.26
38616;BME280;24370;51.986;4.666;2022-10-17T07:20:59;101713.53;;;25.61;51.27
38616;BME280;24370;51.986;4.666;2022-10-17T07:23:25;101719.66;;;25.63;51.14
38616;BME280;24370;51.986;4.666;2022-10-17T07:25:51;101732.63;;;25.85;50.78
38616;BME280;24370;51.986;4.666;2022-10-17T07:28:16;101744.00;;;24.64;54.44
38616;BME280;24370;51.986;4.666;2022-10-17T07:30:42;101766.84;;;24.36;57.44
38616;BME280;24370;51.986;4.666;2022-10-17T07:33:07;101777.81;;;24.65;57.33
38616;BME280;24370;51.986;4.666;2022-10-17T07:35:33;101788.09;;;24.04;59.94
38616;BME280;24370;51.986;4.666;2022-10-17T07:37:58;101801.78;;;23.98;61.04
38616;BME280;24370;51.986;4.666;2022-10-17T07:40:24;101796.56;;;24.63;60.25
38616;BME280;24370;51.986;4.666;2022-10-17T07:42:49;101791.19;;;24.97;57.59
38616;BME280;24370;51.986;4.666;2022-10-17T07:45:15;101800.88;;;23.97;65.10
38616;BME280;24370;51.986;4.666;2022-10-17T07:47:40;101815.72;;;23.85;65.72
38616;BME280;24370;51.986;4.666;2022-10-17T07:50:06;101841.06;;;23.40;70.09
38616;BME280;24370;51.986;4.666;2022-10-17T07:52:32;101841.09;;;23.94;69.06
38616;BME280;24370;51.986;4.666;2022-10-17T07:54:57;101850.97;;;23.55;70.95
38616;BME280;24370;51.986;4.666;2022-10-17T07:57:23;101839.38;;;23.57;69.45
38616;BME280;24370;51.986;4.666;2022-10-17T07:59:48;101837.38;;;24.49;65.13
38616;BME280;24370;51.986;4.666;2022-10-17T08:02:24;101836.75;;;24.62;65.28
38616;BME280;24370;51.986;4.666;2022-10-17T08:04:50;101823.56;;;24.41;65.03
38616;BME280;24370;51.986;4.666;2022-10-17T08:07:15;101816.13;;;24.81;63.07
38616;BME280;24370;51.986;4.666;2022-10-17T08:09:42;101833.72;;;24.85;63.20
38616;BME280;24370;51.986;4.666;2022-10-17T08:12:08;101839.00;;;24.18;65.62
38616;BME280;24370;51.986;4.666;2022-10-17T08:14:33;101839.75;;;24.89;64.64
38616;BME280;24370;51.986;4.666;2022-10-17T08:16:59;101831.75;;;24.38;65.33
38616;BME280;24370;51.986;4.666;2022-10-17T08:19:24;101836.50;;;23.42;71.83
38616;BME280;24370;51.986;4.666;2022-10-17T08:21:49;101837.88;;;24.05;71.98
38616;BME280;24370;51.986;4.666;2022-10-17T08:24:22;101832.59;;;24.38;68.65
38616;BME280;24370;51.986;4.666;2022-10-17T08:26:50;101825.44;;;25.22;62.15
38616;BME280;24370;51.986;4.666;2022-10-17T08:29:18;101825.06;;;24.80;66.30
38616;BME280;24370;51.986;4.666;2022-10-17T08:31:44;101828.97;;;24.57;68.73
38616;BME280;24370;51.986;4.666;2022-10-17T08:34:09;101815.31;;;24.46;65.73
38616;BME280;24370;51.986;4.666;2022-10-17T08:36:35;101799.59;;;25.69;60.83
38616;BME280;24370;51.986;4.666;2022-10-17T08:39:00;101810.25;;;25.54;59.48
38616;BME280;24370;51.986;4.666;2022-10-17T08:44:01;101773.25;;;26.80;54.92
38616;BME280;24370;51.986;4.666;2022-10-17T08:46:33;101778.31;;;26.99;53.50
38616;BME280;24370;51.986;4.666;2022-10-17T08:49:01;101790.94;;;26.97;53.23
38616;BME280;24370;51.986;4.666;2022-10-17T08:51:31;101791.72;;;26.27;55.58
38616;BME280;24370;51.986;4.666;2022-10-17T08:54:19;101799.81;;;27.12;52.97
38616;BME280;24370;51.986;4.666;2022-10-17T08:56:52;101822.25;;;25.94;55.53
38616;BME280;24370;51.986;4.666;2022-10-17T08:59:26;101832.44;;;26.03;57.73
38616;BME280;24370;51.986;4.666;2022-10-17T09:10:35;101854.78;;;26.18;57.79
38616;BME280;24370;51.986;4.666;2022-10-17T09:13:36;101842.81;;;26.09;56.26
38616;BME280;24370;51.986;4.666;2022-10-17T09:18:58;101821.59;;;26.20;57.01
38616;BME280;24370;51.986;4.666;2022-10-17T09:21:41;101837.78;;;26.62;55.82
38616;BME280;24370;51.986;4.666;2022-10-17T09:27:17;101827.25;;;26.00;58.17
38616;BME280;24370;51.986;4.666;2022-10-17T09:29:48;101836.94;;;26.76;54.99
38616;BME280;24370;51.986;4.666;2022-10-17T09:32:18;101837.56;;;25.91;58.76
38616;BME280;24370;51.986;4.666;2022-10-17T09:34:45;101848.69;;;25.84;59.04
38616;BME280;24370;51.986;4.666;2022-10-17T09:37:13;101849.94;;;25.78;58.46
38616;BME280;24370;51.986;4.666;2022-10-17T09:39:40;101857.91;;;25.48;60.47
38616;BME280;24370;51.986;4.666;2022-10-17T09:42:09;101866.22;;;25.89;59.66
38616;BME280;24370;51.986;4.666;2022-10-17T09:44:46;101891.78;;;25.49;62.34
38616;BME280;24370;51.986;4.666;2022-10-17T09:50:00;101922.44;;;24.24;70.19
38616;BME280;24370;51.986;4.666;2022-10-17T09:52:29;101919.09;;;24.88;69.24
38616;BME280;24370;51.986;4.666;2022-10-17T09:55:04;101916.31;;;25.23;62.54
38616;BME280;24370;51.986;4.666;2022-10-17T10:00:21;101938.59;;;24.55;69.16
38616;BME280;24370;51.986;4.666;2022-10-17T10:02:47;101939.84;;;23.38;75.66
38616;BME280;24370;51.986;4.666;2022-10-17T10:05:17;101950.19;;;24.02;73.25
38616;BME280;24370;51.986;4.666;2022-10-17T10:08:05;101950.53;;;25.17;64.93
38616;BME280;24370;51.986;4.666;2022-10-17T10:10:37;101953.91;;;25.38;63.59
38616;BME280;24370;51.986;4.666;2022-10-17T10:15:43;101956.91;;;24.98;65.00
38616;BME280;24370;51.986;4.666;2022-10-17T10:21:14;101952.88;;;25.56;64.67
38616;BME280;24370;51.986;4.666;2022-10-17T10:23:44;101967.22;;;24.36;66.25
38616;BME280;24370;51.986;4.666;2022-10-17T10:29:22;101974.38;;;23.99;73.53
38616;BME280;24370;51.986;4.666;2022-10-17T10:31:51;101980.72;;;24.33;69.47
38616;BME280;24370;51.986;4.666;2022-10-17T10:34:28;101985.84;;;25.41;64.70
38616;BME280;24370;51.986;4.666;2022-10-17T10:36:56;101987.72;;;26.35;58.60
38616;BME280;24370;51.986;4.666;2022-10-17T10:39:34;101994.44;;;24.79;63.64
38616;BME280;24370;51.986;4.666;2022-10-17T10:42:02;101996.88;;;23.55;75.54
38616;BME280;24370;51.986;4.666;2022-10-17T10:44:31;102006.41;;;23.61;76.74
38616;BME280;24370;51.986;4.666;2022-10-17T10:49:32;102007.06;;;25.11;65.59
38616;BME280;24370;51.986;4.666;2022-10-17T10:51:59;102008.41;;;24.13;65.36
38616;BME280;24370;51.986;4.666;2022-10-17T10:54:34;102008.50;;;25.67;60.74
38616;BME280;24370;51.986;4.666;2022-10-17T10:57:03;102023.81;;;23.88;68.33
38616;BME280;24370;51.986;4.666;2022-10-17T11:05:32;102016.78;;;25.95;57.04
38616;BME280;24370;51.986;4.666;2022-10-17T11:08:25;102015.75;;;25.81;58.41
38616;BME280;24370;51.986;4.666;2022-10-17T11:13:40;102028.47;;;24.93;63.67
38616;BME280;24370;51.986;4.666;2022-10-17T11:18:44;102041.97;;;23.80;66.41
38616;BME280;24370;51.986;4.666;2022-10-17T11:21:45;102032.50;;;25.02;63.04
38616;BME280;24370;51.986;4.666;2022-10-17T11:24:19;102048.22;;;25.08;61.72
38616;BME280;24370;51.986;4.666;2022-10-17T11:26:58;102043.22;;;25.18;63.74
38616;BME280;24370;51.986;4.666;2022-10-17T11:29:28;102051.91;;;26.22;57.41
38616;BME280;24370;51.986;4.666;2022-10-17T11:31:56;102041.28;;;26.67;55.00
38616;BME280;24370;51.986;4.666;2022-10-17T11:34:30;102047.91;;;27.06;53.79
38616;BME280;24370;51.986;4.666;2022-10-17T11:37:01;102053.03;;;26.02;57.71
38616;BME280;24370;51.986;4.666;2022-10-17T11:39:42;102059.78;;;25.60;60.05
38616;BME280;24370;51.986;4.666;2022-10-17T11:42:16;102070.56;;;24.72;62.61
38616;BME280;24370;51.986;4.666;2022-10-17T11:44:43;102077.31;;;25.14;60.95
38616;BME280;24370;51.986;4.666;2022-10-17T11:49:49;102075.13;;;24.87;60.71
38616;BME280;24370;51.986;4.666;2022-10-17T11:52:40;102070.56;;;24.89;64.76
38616;BME280;24370;51.986;4.666;2022-10-17T11:55:27;102082.63;;;24.43;66.17
38616;BME280;24370;51.986;4.666;2022-10-17T11:58:34;102084.81;;;25.59;61.45
38616;BME280;24370;51.986;4.666;2022-10-17T12:07:17;102104.47;;;24.52;65.17
38616;BME280;24370;51.986;4.666;2022-10-17T12:10:19;102090.75;;;26.77;55.49
38616;BME280;24370;51.986;4.666;2022-10-17T12:12:49;102092.41;;;25.50;58.38
38616;BME280;24370;51.986;4.666;2022-10-17T12:18:02;102118.59;;;24.54;65.82
38616;BME280;24370;51.986;4.666;2022-10-17T12:20:33;102112.47;;;24.89;64.43
38616;BME280;24370;51.986;4.666;2022-10-17T12:25:32;102113.00;;;25.48;58.35
38616;BME280;24370;51.986;4.666;2022-10-17T12:30:59;102110.72;;;26.55;55.50
38616;BME280;24370;51.986;4.666;2022-10-17T12:33:32;102111.88;;;25.70;56.50
38616;BME280;24370;51.986;4.666;2022-10-17T12:49:47;102135.03;;;26.52;54.90
38616;BME280;24370;51.986;4.666;2022-10-17T12:57:57;102142.75;;;26.11;54.47
38616;BME280;24370;51.986;4.666;2022-10-17T13:00:32;102147.94;;;25.96;55.34
38616;BME280;24370;51.986;4.666;2022-10-17T13:03:27;102145.69;;;27.16;51.60
38616;BME280;24370;51.986;4.666;2022-10-17T13:05:55;102152.09;;;27.58;50.77
38616;BME280;24370;51.986;4.666;2022-10-17T13:08:26;102149.31;;;25.87;55.40
38616;BME280;24370;51.986;4.666;2022-10-17T13:10:54;102157.59;;;24.59;59.13
38616;BME280;24370;51.986;4.666;2022-10-17T13:13:43;102153.38;;;26.12;53.76
38616;BME280;24370;51.986;4.666;2022-10-17T13:16:33;102165.84;;;26.77;52.72
38616;BME280;24370;51.986;4.666;2022-10-17T13:19:01;102164.28;;;26.41;51.54
38616;BME280;24370;51.986;4.666;2022-10-17T13:21:27;102166.00;;;26.42;52.65
38616;BME280;24370;51.986;4.666;2022-10-17T13:23:53;102170.22;;;27.24;50.74
38616;BME280;24370;51.986;4.666;2022-10-17T13:26:24;102174.41;;;27.14;50.66
38616;BME280;24370;51.986;4.666;2022-10-17T13:29:10;102189.19;;;25.06;55.33
38616;BME280;24370;51.986;4.666;2022-10-17T13:31:38;102187.09;;;26.80;52.34
38616;BME280;24370;51.986;4.666;2022-10-17T13:34:14;102191.44;;;27.74;48.07
38616;BME280;24370;51.986;4.666;2022-10-17T13:36:41;102199.75;;;26.78;50.40
38616;BME280;24370;51.986;4.666;2022-10-17T13:39:11;102181.13;;;27.21;50.54
38616;BME280;24370;51.986;4.666;2022-10-17T13:41:39;102177.81;;;27.91;48.91
38616;BME280;24370;51.986;4.666;2022-10-17T13:44:13;102185.88;;;25.88;53.21
38616;BME280;24370;51.986;4.666;2022-10-17T13:46:39;102186.59;;;26.57;52.13
38616;BME280;24370;51.986;4.666;2022-10-17T13:49:31;102190.69;;;27.86;49.10
38616;BME280;24370;51.986;4.666;2022-10-17T13:51:57;102188.84;;;26.81;49.56
38616;BME280;24370;51.986;4.666;2022-10-17T13:54:43;102181.94;;;27.97;47.39
38616;BME280;24370;51.986;4.666;2022-10-17T13:57:29;102180.59;;;27.31;49.51
38616;BME280;24370;51.986;4.666;2022-10-17T14:00:27;102173.78;;;26.95;48.66
38616;BME280;24370;51.986;4.666;2022-10-17T14:02:53;102178.06;;;25.33;53.10
38616;BME280;24370;51.986;4.666;2022-10-17T14:05:19;102176.03;;;26.38;51.52
38616;BME280;24370;51.986;4.666;2022-10-17T14:07:58;102178.41;;;26.11;50.50
38616;BME280;24370;51.986;4.666;2022-10-17T14:12:56;102183.03;;;25.91;51.89
38616;BME280;24370;51.986;4.666;2022-10-17T14:15:26;102178.44;;;27.37;48.93
38616;BME280;24370;51.986;4.666;2022-10-17T14:17:55;102195.41;;;26.91;49.03
38616;BME280;24370;51.986;4.666;2022-10-17T14:20:21;102203.22;;;27.71;46.96
38616;BME280;24370;51.986;4.666;2022-10-17T14:22:47;102217.97;;;26.39;49.97
38616;BME280;24370;51.986;4.666;2022-10-17T14:25:45;102212.34;;;27.69;46.17
38616;BME280;24370;51.986;4.666;2022-10-17T14:30:39;102213.22;;;26.61;49.44
38616;BME280;24370;51.986;4.666;2022-10-17T14:33:07;102208.38;;;25.32;53.76
38616;BME280;24370;51.986;4.666;2022-10-17T14:35:35;102206.09;;;27.07;49.06
38616;BME280;24370;51.986;4.666;2022-10-17T14:38:03;102210.53;;;26.92;48.86
38616;BME280;24370;51.986;4.666;2022-10-17T14:40:31;102208.22;;;27.33;47.80
38616;BME280;24370;51.986;4.666;2022-10-17T14:43:01;102215.66;;;25.65;53.24
38616;BME280;24370;51.986;4.666;2022-10-17T14:45:30;102222.56;;;26.85;49.18
38616;BME280;24370;51.986;4.666;2022-10-17T14:48:05;102224.63;;;26.48;50.55
38616;BME280;24370;51.986;4.666;2022-10-17T14:50:33;102227.94;;;25.34;52.89
38616;BME280;24370;51.986;4.666;2022-10-17T14:53:21;102238.34;;;25.57;52.78